createdAt,value
2024-01-06T00:02:20.264Z,52.20
2024-01-06T00:04:46.889Z,52.56
2024-01-06T00:07:14.760Z,52.53
2024-01-06T00:09:41.459Z,51.96
2024-01-06T00:12:08.158Z,52.69
2024-01-06T00:14:34.810Z,52.17
2024-01-06T00:17:01.477Z,52.78
2024-01-06T00:19:28.250Z,52.64
2024-01-06T00:21:54.870Z,52.78
2024-01-06T00:24:21.511Z,52.84
2024-01-06T00:26:48.128Z,52.26
2024-01-06T00:29:14.715Z,52.29
2024-01-06T00:31:41.469Z,52.50
2024-01-06T00:34:08.172Z,52.32
2024-01-06T00:36:34.770Z,52.38
2024-01-06T00:39:01.341Z,53.15
2024-01-06T00:41:27.943Z,52.41
2024-01-06T00:43:54.553Z,52.51
2024-01-06T00:46:21.147Z,52.88
2024-01-06T00:48:47.834Z,52.57
2024-01-06T00:51:14.543Z,53.09
2024-01-06T00:53:41.102Z,53.36
2024-01-06T00:56:07.757Z,53.37
2024-01-06T00:58:34.345Z,53.65
2024-01-06T01:01:01.055Z,53.10
2024-01-06T01:03:27.901Z,53.41
2024-01-06T01:05:54.771Z,53.97
2024-01-06T01:08:21.389Z,53.29
2024-01-06T01:10:47.951Z,53.59
2024-01-06T01:13:14.493Z,53.37
2024-01-06T01:15:41.131Z,53.94
2024-01-06T01:18:09.185Z,53.36
2024-01-06T01:20:35.910Z,53.84
2024-01-06T01:23:02.461Z,54.05
2024-01-06T01:25:29.103Z,53.73
2024-01-06T01:27:55.705Z,54.05
2024-01-06T01:30:22.372Z,54.33
2024-01-06T01:32:49.101Z,53.94
2024-01-06T01:35:16.103Z,54.13
2024-01-06T01:37:42.770Z,53.91
2024-01-06T01:40:09.838Z,54.26
2024-01-06T01:42:36.477Z,54.09
2024-01-06T01:45:03.131Z,54.20
2024-01-06T01:47:29.874Z,54.39
2024-01-06T01:49:57.650Z,54.27
2024-01-06T01:52:24.609Z,53.99
2024-01-06T01:54:53.802Z,54.41
2024-01-06T01:57:24.595Z,54.38
2024-01-06T01:59:51.242Z,54.26
2024-01-06T02:02:18.300Z,54.31
2024-01-06T02:04:46.721Z,54.63
2024-01-06T02:07:13.308Z,54.49
2024-01-06T02:09:39.938Z,54.54
2024-01-06T02:12:06.820Z,54.25
2024-01-06T02:14:33.782Z,54.46
2024-01-06T02:17:00.362Z,54.35
2024-01-06T02:19:26.986Z,54.36
2024-01-06T02:21:54.698Z,54.77
2024-01-06T02:24:22.049Z,54.62
2024-01-06T02:26:48.725Z,54.62
2024-01-06T02:29:15.284Z,54.82
2024-01-06T02:31:42.058Z,54.94
2024-01-06T02:34:08.840Z,54.86
2024-01-06T02:36:35.540Z,55.01
2024-01-06T02:39:02.408Z,55.02
2024-01-06T02:41:28.950Z,54.45
2024-01-06T02:43:56.676Z,54.81
2024-01-06T02:46:23.277Z,54.78
2024-01-06T02:48:49.961Z,54.38
2024-01-06T02:51:16.745Z,54.92
2024-01-06T02:53:43.445Z,54.90
2024-01-06T02:56:13.534Z,54.88
2024-01-06T02:58:40.540Z,54.57
2024-01-06T03:01:07.296Z,54.80
2024-01-06T03:03:34.283Z,55.00
2024-01-06T03:06:01.133Z,55.05
2024-01-06T03:08:28.026Z,55.05
2024-01-06T03:10:54.623Z,54.70
2024-01-06T03:13:21.386Z,55.08
2024-01-06T03:15:48.324Z,54.75
2024-01-06T03:18:15.200Z,54.75
2024-01-06T03:20:41.931Z,54.75
2024-01-06T03:23:08.566Z,54.72
2024-01-06T03:25:35.120Z,54.53
2024-01-06T03:28:01.970Z,54.40
2024-01-06T03:30:28.636Z,54.39
2024-01-06T03:32:55.307Z,54.46
2024-01-06T03:35:21.956Z,54.50
2024-01-06T03:37:48.813Z,54.57
2024-01-06T03:40:15.428Z,54.35
2024-01-06T03:42:42.032Z,54.10
2024-01-06T03:45:09.023Z,54.09
2024-01-06T03:47:35.662Z,54.07
2024-01-06T03:50:02.229Z,54.33
2024-01-06T03:52:28.855Z,54.28
2024-01-06T03:54:55.469Z,53.93
2024-01-06T03:57:22.200Z,54.02
2024-01-06T03:59:48.832Z,53.94
2024-01-06T04:02:15.380Z,54.46
2024-01-06T04:04:41.977Z,53.95
2024-01-06T04:07:08.549Z,54.01
2024-01-06T04:09:35.194Z,54.02
2024-01-06T04:12:02.288Z,54.17
2024-01-06T04:14:29.240Z,54.06
2024-01-06T04:16:57.654Z,54.06
2024-01-06T04:19:25.068Z,53.92
2024-01-06T04:21:52.067Z,53.41
2024-01-06T04:24:18.976Z,53.67
2024-01-06T04:26:47.057Z,53.55
2024-01-06T04:29:13.805Z,53.76
2024-01-06T04:31:41.827Z,53.68
2024-01-06T04:34:08.687Z,53.82
2024-01-06T04:36:35.405Z,53.70
2024-01-06T04:39:02.187Z,53.92
2024-01-06T04:41:28.849Z,53.87
2024-01-06T04:43:55.433Z,53.41
2024-01-06T04:46:22.013Z,53.62
2024-01-06T04:48:48.678Z,53.91
2024-01-06T04:51:16.073Z,53.86
2024-01-06T04:53:42.653Z,53.60
2024-01-06T04:56:09.194Z,54.01
2024-01-06T04:58:35.971Z,54.19
2024-01-06T05:01:03.476Z,54.26
2024-01-06T05:03:30.360Z,54.42
2024-01-06T05:05:57.239Z,54.39
2024-01-06T05:08:24.013Z,54.31
2024-01-06T05:10:50.720Z,54.64
2024-01-06T05:13:18.530Z,54.77
2024-01-06T05:15:45.179Z,54.52
2024-01-06T05:18:11.966Z,54.80
2024-01-06T05:20:38.696Z,54.58
2024-01-06T05:23:05.214Z,55.03
2024-01-06T05:25:31.786Z,55.17
2024-01-06T05:27:58.506Z,55.18
2024-01-06T05:30:25.482Z,54.74
2024-01-06T05:32:52.202Z,54.65
2024-01-06T05:35:18.856Z,54.61
2024-01-06T05:37:45.425Z,54.72
2024-01-06T05:40:12.795Z,54.10
2024-01-06T05:42:39.578Z,54.04
2024-01-06T05:45:06.717Z,53.51
2024-01-06T05:47:33.760Z,53.95
2024-01-06T05:50:00.500Z,53.35
2024-01-06T05:52:27.081Z,53.05
2024-01-06T05:54:53.850Z,53.47
2024-01-06T05:57:20.575Z,53.37
2024-01-06T05:59:47.301Z,53.53
2024-01-06T06:02:14.773Z,53.17
2024-01-06T06:04:41.479Z,53.53
2024-01-06T06:07:08.207Z,53.60
2024-01-06T06:09:35.945Z,53.37
2024-01-06T06:12:02.726Z,53.04
2024-01-06T06:14:30.470Z,52.94
2024-01-06T06:16:57.998Z,53.25
2024-01-06T06:19:24.859Z,53.74
2024-01-06T06:21:51.582Z,53.55
2024-01-06T06:24:18.282Z,53.93
2024-01-06T06:26:44.954Z,54.39
2024-01-06T06:29:11.582Z,53.75
2024-01-06T06:31:38.287Z,54.29
2024-01-06T06:34:08.697Z,54.45
2024-01-06T06:36:36.192Z,54.64
2024-01-06T06:39:05.193Z,54.29
2024-01-06T06:41:31.987Z,53.98
2024-01-06T06:43:58.852Z,53.91
2024-01-06T06:46:25.658Z,53.58
2024-01-06T06:48:52.510Z,53.55
2024-01-06T06:51:19.463Z,53.46
2024-01-06T06:53:48.274Z,52.92
2024-01-06T06:56:18.207Z,52.79
2024-01-06T06:58:44.940Z,52.87
2024-01-06T07:01:11.583Z,53.54
2024-01-06T07:03:38.689Z,53.03
2024-01-06T07:06:05.482Z,52.95
2024-01-06T07:08:32.066Z,52.98
2024-01-06T07:10:58.631Z,52.53
2024-01-06T07:13:25.222Z,53.19
2024-01-06T07:15:52.488Z,53.91
2024-01-06T07:18:24.320Z,53.60
2024-01-06T07:20:50.989Z,53.46
2024-01-06T07:23:17.709Z,53.54
2024-01-06T07:25:44.330Z,53.87
2024-01-06T07:28:10.906Z,53.78
2024-01-06T07:30:37.594Z,53.46
2024-01-06T07:33:04.410Z,53.57
2024-01-06T07:35:30.985Z,54.14
2024-01-06T07:37:57.551Z,53.95
2024-01-06T07:40:26.587Z,54.50
2024-01-06T07:42:53.239Z,54.28
2024-01-06T07:45:19.900Z,54.23
2024-01-06T07:47:46.570Z,54.34
2024-01-06T07:50:13.180Z,54.40
2024-01-06T07:52:39.734Z,54.95
2024-01-06T07:55:06.431Z,54.83
2024-01-06T07:57:33.272Z,54.60
2024-01-06T08:00:02.421Z,54.81
2024-01-06T08:02:31.013Z,54.31
2024-01-06T08:04:57.986Z,54.50
2024-01-06T08:07:24.865Z,54.12
2024-01-06T08:09:51.499Z,53.53
2024-01-06T08:12:18.144Z,53.46
2024-01-06T08:14:44.773Z,53.04
2024-01-06T08:17:11.347Z,53.09
2024-01-06T08:19:38.125Z,52.78
2024-01-06T08:22:04.784Z,52.37
2024-01-06T08:24:31.333Z,52.24
2024-01-06T08:26:58.523Z,51.89
2024-01-06T08:29:25.067Z,51.31
2024-01-06T08:31:53.433Z,51.70
2024-01-06T08:34:20.349Z,51.49
2024-01-06T08:36:47.281Z,51.36
2024-01-06T08:39:14.178Z,50.97
2024-01-06T08:41:40.782Z,51.00
2024-01-06T08:44:07.328Z,50.98
2024-01-06T08:46:33.921Z,50.47
2024-01-06T08:49:01.698Z,50.35
2024-01-06T08:51:28.510Z,50.89
2024-01-06T08:53:55.108Z,50.56
2024-01-06T08:56:21.820Z,50.16
2024-01-06T08:58:48.368Z,50.66
2024-01-06T09:01:15.080Z,50.71
2024-01-06T09:03:41.896Z,50.21
2024-01-06T09:06:08.574Z,50.63
2024-01-06T09:08:35.139Z,49.91
2024-01-06T09:11:01.769Z,50.85
2024-01-06T09:13:28.326Z,49.90
2024-01-06T09:15:55.304Z,50.22
2024-01-06T09:18:22.232Z,50.65
2024-01-06T09:20:49.108Z,50.44
2024-01-06T09:23:17.069Z,51.25
2024-01-06T09:25:43.710Z,51.22
2024-01-06T09:28:11.989Z,51.12
2024-01-06T09:30:38.876Z,51.55
2024-01-06T09:33:05.699Z,51.11
2024-01-06T09:35:33.287Z,51.34
2024-01-06T09:37:59.866Z,51.72
2024-01-06T09:40:26.448Z,51.44
2024-01-06T09:42:54.733Z,51.19
2024-01-06T09:45:22.224Z,51.59
2024-01-06T09:47:52.934Z,51.44
2024-01-06T09:50:20.636Z,51.77
2024-01-06T09:52:56.583Z,51.48
2024-01-06T09:55:27.272Z,51.53
2024-01-06T09:57:55.066Z,51.29
2024-01-06T10:00:22.758Z,51.61
2024-01-06T10:02:50.179Z,51.75
2024-01-06T10:05:20.179Z,51.78
2024-01-06T10:07:47.122Z,51.72
2024-01-06T10:10:14.425Z,51.54
2024-01-06T10:12:42.325Z,51.79
2024-01-06T10:15:11.124Z,51.23
2024-01-06T10:17:42.088Z,51.78
2024-01-06T10:20:13.202Z,51.27
2024-01-06T10:22:42.491Z,50.86
2024-01-06T10:25:10.238Z,50.83
2024-01-06T10:27:38.384Z,50.58
2024-01-06T10:30:08.726Z,50.26
2024-01-06T10:32:37.389Z,50.71
2024-01-06T10:35:08.296Z,50.74
2024-01-06T10:37:35.097Z,50.20
2024-01-06T10:40:08.711Z,50.56
2024-01-06T10:42:35.856Z,50.32
2024-01-06T10:45:03.206Z,50.01
2024-01-06T10:47:33.186Z,50.37
2024-01-06T10:50:02.146Z,50.54
2024-01-06T10:52:29.660Z,50.83
2024-01-06T10:54:57.063Z,51.29
2024-01-06T10:57:24.656Z,51.05
2024-01-06T10:59:52.718Z,50.94
2024-01-06T11:02:20.144Z,51.86
2024-01-06T11:04:48.254Z,51.76
2024-01-06T11:07:17.299Z,51.88
2024-01-06T11:10:01.489Z,52.28
2024-01-06T11:12:28.596Z,51.72
2024-01-06T11:14:55.579Z,51.69
2024-01-06T11:17:55.065Z,52.10
2024-01-06T11:20:23.234Z,52.19
2024-01-06T11:22:50.942Z,51.47
2024-01-06T11:25:20.994Z,51.78
2024-01-06T11:27:49.590Z,51.24
2024-01-06T11:30:24.583Z,51.08
2024-01-06T11:32:56.638Z,50.71
2024-01-06T11:35:25.159Z,50.95
2024-01-06T11:37:56.071Z,50.66
2024-01-06T11:40:22.712Z,50.46
2024-01-06T11:42:58.094Z,50.44
2024-01-06T11:45:26.466Z,50.73
2024-01-06T11:48:03.610Z,50.62
2024-01-06T11:50:33.371Z,50.84
2024-01-06T11:53:02.998Z,50.52
2024-01-06T11:55:30.073Z,51.07
2024-01-06T11:57:58.816Z,50.88
2024-01-06T12:00:25.610Z,51.11
2024-01-06T12:02:57.610Z,50.78
2024-01-06T12:05:25.989Z,51.15
2024-01-06T12:07:56.253Z,51.40
2024-01-06T12:10:23.813Z,51.08
2024-01-06T12:13:18.988Z,51.15
2024-01-06T12:15:45.684Z,51.38
2024-01-06T12:18:12.455Z,51.30
2024-01-06T12:20:39.273Z,50.93
2024-01-06T12:23:07.590Z,50.72
2024-01-06T12:25:39.936Z,50.65
2024-01-06T12:28:07.851Z,50.57
2024-01-06T12:30:36.459Z,50.97
2024-01-06T12:33:03.597Z,50.70
2024-01-06T12:35:30.294Z,50.15
2024-01-06T12:37:57.136Z,50.64
2024-01-06T12:40:23.931Z,50.83
2024-01-06T12:42:50.583Z,50.47
2024-01-06T12:45:17.722Z,50.34
2024-01-06T12:47:44.776Z,50.25
2024-01-06T12:50:11.573Z,50.22
2024-01-06T12:52:40.100Z,49.96
2024-01-06T12:55:08.617Z,50.41
2024-01-06T12:57:35.639Z,50.10
2024-01-06T13:00:02.707Z,49.92
2024-01-06T13:02:29.593Z,50.14
2024-01-06T13:04:56.366Z,50.05
2024-01-06T13:07:23.344Z,50.72
2024-01-06T13:09:50.390Z,50.44
2024-01-06T13:12:19.628Z,50.70
2024-01-06T13:14:48.412Z,50.16
2024-01-06T13:17:18.027Z,50.37
2024-01-06T13:19:45.117Z,50.16
2024-01-06T13:22:11.791Z,50.04
2024-01-06T13:24:39.116Z,50.31
2024-01-06T13:27:05.886Z,49.96
2024-01-06T13:29:32.799Z,50.16
2024-01-06T13:32:00.703Z,50.31
2024-01-06T13:34:27.994Z,50.16
2024-01-06T13:36:57.140Z,49.88
2024-01-06T13:39:24.621Z,50.28
2024-01-06T13:41:51.358Z,50.02
2024-01-06T13:44:17.998Z,50.34
2024-01-06T13:46:48.773Z,50.00
2024-01-06T13:49:15.828Z,50.25
2024-01-06T13:51:42.753Z,50.21
2024-01-06T13:54:10.545Z,49.75
2024-01-06T13:56:38.042Z,49.30
2024-01-06T13:59:04.803Z,49.83
2024-01-06T14:01:31.810Z,49.41
2024-01-06T14:03:59.352Z,49.33
2024-01-06T14:06:26.927Z,49.59
2024-01-06T14:08:53.753Z,49.38
2024-01-06T14:11:20.334Z,48.66
2024-01-06T14:13:50.501Z,48.84
2024-01-06T14:16:17.081Z,48.36
2024-01-06T14:18:43.781Z,48.62
2024-01-06T14:21:11.687Z,48.72
2024-01-06T14:23:38.407Z,48.76
2024-01-06T14:26:05.000Z,49.22
2024-01-06T14:28:31.608Z,48.91
2024-01-06T14:30:58.279Z,48.62
2024-01-06T14:33:25.018Z,49.07
2024-01-06T14:35:51.917Z,48.93
2024-01-06T14:38:18.513Z,48.77
2024-01-06T14:40:45.165Z,48.65
2024-01-06T14:43:11.800Z,49.20
2024-01-06T14:45:39.314Z,48.67
2024-01-06T14:48:06.635Z,49.57
2024-01-06T14:50:33.255Z,49.88
2024-01-06T14:52:59.826Z,49.71
2024-01-06T14:55:26.421Z,49.59
2024-01-06T14:57:53.014Z,50.06
2024-01-06T15:00:19.813Z,49.86
2024-01-06T15:02:49.846Z,49.39
2024-01-06T15:05:17.055Z,49.43
2024-01-06T15:07:43.826Z,48.82
2024-01-06T15:10:11.747Z,48.56
2024-01-06T15:12:38.508Z,48.75
2024-01-06T15:15:06.999Z,48.29
2024-01-06T15:17:33.737Z,48.80
2024-01-06T15:20:00.415Z,48.43
2024-01-06T15:22:29.190Z,49.07
2024-01-06T15:24:57.938Z,48.97
2024-01-06T15:27:25.529Z,48.58
2024-01-06T15:29:52.290Z,48.95
2024-01-06T15:32:19.425Z,48.53
2024-01-06T15:34:46.036Z,48.60
2024-01-06T15:37:12.591Z,48.92
2024-01-06T15:39:39.226Z,48.49
2024-01-06T15:42:05.892Z,49.16
2024-01-06T15:44:34.575Z,48.52
2024-01-06T15:47:01.285Z,48.39
2024-01-06T15:49:28.559Z,48.61
2024-01-06T15:51:55.397Z,47.84
2024-01-06T15:54:24.153Z,48.31
2024-01-06T15:56:51.076Z,47.72
2024-01-06T15:59:17.664Z,48.27
2024-01-06T16:01:44.405Z,47.99
2024-01-06T16:04:11.299Z,47.61
2024-01-06T16:06:38.001Z,47.87
2024-01-06T16:09:06.878Z,48.33
2024-01-06T16:11:33.687Z,48.20
2024-01-06T16:14:00.264Z,48.92
2024-01-06T16:16:30.091Z,48.76
2024-01-06T16:18:56.864Z,48.68
2024-01-06T16:21:24.817Z,49.36
2024-01-06T16:23:52.316Z,49.04
2024-01-06T16:26:20.069Z,48.96
2024-01-06T16:28:48.005Z,49.12
2024-01-06T16:31:14.649Z,49.65
2024-01-06T16:33:41.505Z,49.70
2024-01-06T16:36:11.358Z,49.50
2024-01-06T16:38:38.015Z,49.81
2024-01-06T16:41:05.143Z,49.07
2024-01-06T16:43:35.537Z,49.06
2024-01-06T16:46:02.157Z,48.94
2024-01-06T16:48:28.936Z,49.02
2024-01-06T16:50:55.593Z,48.51
2024-01-06T16:53:22.158Z,48.89
2024-01-06T16:55:48.731Z,48.14
2024-01-06T16:58:15.398Z,48.35
2024-01-06T17:00:42.126Z,47.95
2024-01-06T17:03:09.249Z,48.02
2024-01-06T17:05:36.108Z,48.02
2024-01-06T17:08:04.682Z,47.76
2024-01-06T17:10:31.283Z,48.56
2024-01-06T17:12:57.939Z,47.99
2024-01-06T17:15:27.311Z,47.81
2024-01-06T17:17:54.027Z,47.68
2024-01-06T17:20:20.704Z,48.38
2024-01-06T17:22:47.673Z,48.13
2024-01-06T17:25:16.201Z,47.87
2024-01-06T17:27:46.379Z,47.82
2024-01-06T17:30:15.703Z,48.50
2024-01-06T17:32:42.641Z,48.05
2024-01-06T17:35:09.633Z,48.54
2024-01-06T17:37:36.240Z,48.24
2024-01-06T17:40:03.826Z,48.32
2024-01-06T17:42:31.339Z,48.47
2024-01-06T17:44:59.216Z,48.47
2024-01-06T17:47:26.004Z,48.78
2024-01-06T17:49:52.749Z,48.78
2024-01-06T17:52:19.759Z,48.46
2024-01-06T17:54:46.450Z,48.80
2024-01-06T17:57:18.869Z,48.90
2024-01-06T17:59:46.289Z,48.57
2024-01-06T18:02:13.963Z,48.48
2024-01-06T18:04:40.815Z,48.45
2024-01-06T18:07:09.137Z,47.63
2024-01-06T18:09:36.014Z,47.96
2024-01-06T18:12:02.646Z,47.45
2024-01-06T18:14:36.061Z,47.56
2024-01-06T18:17:04.734Z,47.32
2024-01-06T18:19:31.452Z,47.42
2024-01-06T18:21:58.443Z,46.80
2024-01-06T18:24:25.088Z,46.92
2024-01-06T18:26:52.175Z,46.84
2024-01-06T18:29:19.987Z,47.06
2024-01-06T18:31:46.841Z,47.08
2024-01-06T18:34:13.653Z,46.72
2024-01-06T18:36:40.486Z,47.24
2024-01-06T18:39:08.622Z,47.16
2024-01-06T18:41:35.239Z,47.60
2024-01-06T18:44:03.369Z,47.02
2024-01-06T18:46:30.118Z,47.78
2024-01-06T18:48:56.923Z,47.53
2024-01-06T18:51:23.655Z,47.57
2024-01-06T18:53:50.210Z,47.76
2024-01-06T18:56:16.800Z,47.09
2024-01-06T18:58:43.477Z,47.25
2024-01-06T19:01:10.137Z,47.97
2024-01-06T19:03:36.892Z,47.77
2024-01-06T19:06:03.646Z,47.85
2024-01-06T19:08:30.237Z,47.61
2024-01-06T19:10:56.789Z,47.97
2024-01-06T19:13:23.339Z,48.09
2024-01-06T19:15:50.071Z,48.13
2024-01-06T19:18:16.777Z,48.01
2024-01-06T19:20:45.455Z,47.71
2024-01-06T19:23:12.258Z,47.29
2024-01-06T19:25:38.825Z,47.40
2024-01-06T19:28:06.545Z,46.87
2024-01-06T19:30:33.349Z,46.49
2024-01-06T19:33:00.138Z,47.01
2024-01-06T19:35:28.361Z,46.64
2024-01-06T19:37:54.924Z,46.69
2024-01-06T19:40:22.600Z,47.55
2024-01-06T19:42:52.198Z,47.25
2024-01-06T19:45:19.106Z,47.34
2024-01-06T19:47:45.950Z,47.17
2024-01-06T19:50:13.296Z,47.36
2024-01-06T19:52:39.949Z,47.51
2024-01-06T19:55:10.929Z,47.54
2024-01-06T19:57:37.777Z,47.33
2024-01-06T20:00:05.802Z,47.03
2024-01-06T20:02:32.428Z,46.98
2024-01-06T20:04:59.194Z,47.12
2024-01-06T20:07:29.835Z,47.44
2024-01-06T20:09:58.048Z,46.75
2024-01-06T20:12:25.940Z,47.31
2024-01-06T20:14:57.802Z,46.99
2024-01-06T20:17:25.440Z,47.27
2024-01-06T20:19:52.656Z,47.27
2024-01-06T20:22:19.719Z,47.23
2024-01-06T20:24:46.439Z,47.00
2024-01-06T20:27:13.348Z,47.45
2024-01-06T20:29:39.939Z,46.59
2024-01-06T20:32:07.024Z,46.88
2024-01-06T20:34:34.114Z,47.44
2024-01-06T20:37:01.169Z,47.47
2024-01-06T20:39:27.904Z,47.36
2024-01-06T20:41:54.598Z,46.91
2024-01-06T20:44:21.616Z,47.74
2024-01-06T20:46:49.784Z,47.76
2024-01-06T20:49:16.529Z,47.77
2024-01-06T20:51:43.148Z,47.70
2024-01-06T20:54:09.707Z,47.64
2024-01-06T20:56:37.418Z,47.32
2024-01-06T20:59:04.034Z,47.76
2024-01-06T21:01:30.846Z,48.05
2024-01-06T21:03:57.594Z,48.03
2024-01-06T21:06:24.218Z,48.27
2024-01-06T21:08:50.961Z,48.64
2024-01-06T21:11:17.544Z,48.76
2024-01-06T21:13:44.137Z,48.64
2024-01-06T21:16:10.832Z,48.89
2024-01-06T21:18:40.345Z,49.25
2024-01-06T21:21:06.959Z,49.32
2024-01-06T21:23:40.530Z,49.54
2024-01-06T21:26:14.485Z,49.25
2024-01-06T21:28:41.064Z,49.50
2024-01-06T21:31:07.829Z,49.80
2024-01-06T21:33:34.585Z,49.86
2024-01-06T21:36:01.236Z,49.69
2024-01-06T21:38:27.769Z,49.79
2024-01-06T21:40:54.350Z,49.67
2024-01-06T21:43:21.110Z,49.80
2024-01-06T21:45:47.890Z,49.59
2024-01-06T21:48:14.659Z,49.51
2024-01-06T21:50:41.906Z,49.95
2024-01-06T21:53:08.608Z,50.14
2024-01-06T21:55:35.158Z,49.57
2024-01-06T21:58:01.910Z,50.06
2024-01-06T22:00:28.745Z,49.93
2024-01-06T22:02:55.413Z,50.09
2024-01-06T22:05:22.164Z,50.17
2024-01-06T22:07:48.821Z,49.92
2024-01-06T22:10:16.251Z,50.14
2024-01-06T22:12:42.889Z,50.41
2024-01-06T22:15:10.221Z,49.87
2024-01-06T22:17:36.868Z,50.58
2024-01-06T22:20:05.102Z,50.29
2024-01-06T22:22:31.765Z,50.66
2024-01-06T22:24:58.476Z,50.74
2024-01-06T22:27:25.286Z,50.70
2024-01-06T22:29:52.005Z,50.79
2024-01-06T22:32:18.574Z,50.99
2024-01-06T22:34:45.551Z,50.68
2024-01-06T22:37:12.531Z,50.82
2024-01-06T22:39:42.426Z,50.63
2024-01-06T22:42:09.152Z,50.43
2024-01-06T22:44:36.431Z,50.43
2024-01-06T22:47:03.269Z,50.58
2024-01-06T22:49:30.087Z,50.53
2024-01-06T22:51:56.876Z,50.62
2024-01-06T22:54:23.696Z,50.33
2024-01-06T22:56:50.343Z,50.98
2024-01-06T22:59:17.211Z,50.53
2024-01-06T23:01:44.000Z,50.59
2024-01-06T23:04:10.672Z,51.27
2024-01-06T23:06:37.585Z,51.18
2024-01-06T23:09:05.656Z,50.68
2024-01-06T23:11:32.541Z,50.81
2024-01-06T23:13:59.539Z,50.60
2024-01-06T23:16:26.835Z,51.15
2024-01-06T23:18:54.227Z,50.54
2024-01-06T23:21:20.935Z,50.70
2024-01-06T23:23:47.905Z,51.35
2024-01-06T23:26:14.546Z,51.05
2024-01-06T23:28:41.134Z,50.26
2024-01-06T23:31:09.326Z,51.08
2024-01-06T23:33:36.229Z,50.88
2024-01-06T23:36:04.030Z,51.36
2024-01-06T23:38:30.664Z,51.08
2024-01-06T23:40:57.298Z,50.63
2024-01-06T23:43:23.905Z,51.33
2024-01-06T23:45:50.620Z,51.22
2024-01-06T23:48:17.253Z,51.40
2024-01-06T23:50:43.838Z,50.52
2024-01-06T23:53:12.153Z,51.28
2024-01-06T23:55:38.737Z,51.14
2024-01-06T23:58:05.479Z,51.26
